Time;durP1;ratioP1;P1;durP2;ratioP2;P2;SDS_P1;SDS_P2;PMS_P1;PMS_P2;Temp;Humidity;BMP_temperature;BMP_pressure;BME280_temperature;BME280_humidity;BME280_pressure;Samples;Min_cycle;Max_cycle;Signal;HPM_P1;HPM_P2
2021/05/31 00:00:38;;;;;;;25.05;20.08;;;15.00;99.90;;;;;;1877942;75;21042;-73
2021/05/31 00:03:07;;;;;;;27.02;19.87;;;14.90;99.90;;;;;;1873509;76;21077;-73
2021/05/31 00:05:35;;;;;;;28.12;21.15;;;14.90;99.90;;;;;;1874452;76;21006;-73
2021/05/31 00:08:02;;;;;;;27.85;20.50;;;14.90;99.90;;;;;;1874594;75;21963;-74
2021/05/31 00:10:30;;;;;;;27.37;19.98;;;14.90;99.90;;;;;;1874413;75;21074;-73
2021/05/31 00:12:57;;;;;;;24.75;20.30;;;14.90;99.90;;;;;;1872463;76;21872;-73
2021/05/31 00:15:26;;;;;;;26.10;19.15;;;14.90;99.90;;;;;;1875361;76;21067;-72
2021/05/31 00:17:54;;;;;;;25.80;20.82;;;14.90;99.90;;;;;;1879500;75;21207;-73
2021/05/31 00:20:22;;;;;;;30.20;19.12;;;14.90;99.90;;;;;;1873225;75;21100;-74
2021/05/31 00:22:50;;;;;;;30.32;20.68;;;14.90;99.90;;;;;;1856395;77;21661;-74
2021/05/31 00:25:18;;;;;;;22.07;19.50;;;14.90;99.90;;;;;;1853536;77;21125;-73
2021/05/31 00:27:45;;;;;;;24.77;19.62;;;14.90;99.90;;;;;;1852166;76;21758;-73
2021/05/31 00:30:13;;;;;;;25.17;19.52;;;14.90;99.90;;;;;;1852215;77;21673;-73
2021/05/31 00:32:41;;;;;;;24.75;19.73;;;14.90;99.90;;;;;;1853144;76;21117;-73
2021/05/31 00:35:10;;;;;;;27.50;21.80;;;14.90;99.90;;;;;;1853172;75;21148;-73
2021/05/31 00:37:38;;;;;;;28.02;20.25;;;14.90;99.90;;;;;;1854358;76;21027;-73
2021/05/31 00:40:07;;;;;;;23.83;20.55;;;14.90;99.90;;;;;;1853149;77;21090;-73
2021/05/31 00:42:35;;;;;;;25.27;19.62;;;14.90;99.90;;;;;;1856749;77;21019;-73
2021/05/31 00:45:05;;;;;;;27.70;22.67;;;14.90;99.90;;;;;;1852947;75;21105;-73
2021/05/31 00:47:32;;;;;;;26.23;20.97;;;14.80;99.90;;;;;;1851983;77;21050;-73
2021/05/31 00:50:00;;;;;;;27.82;22.60;;;14.80;99.90;;;;;;1851850;76;21184;-73
2021/05/31 00:52:28;;;;;;;24.12;19.75;;;14.70;99.90;;;;;;1851249;77;21175;-73
2021/05/31 00:54:55;;;;;;;21.68;19.20;;;14.70;99.90;;;;;;1842062;76;21046;-73
2021/05/31 00:57:23;;;;;;;25.02;19.40;;;14.70;99.90;;;;;;1842785;77;21487;-74
2021/05/31 00:59:51;;;;;;;23.40;19.70;;;14.70;99.90;;;;;;1850525;77;21797;-73
2021/05/31 01:02:18;;;;;;;25.12;21.48;;;14.70;99.90;;;;;;1854016;77;21125;-74
2021/05/31 01:04:46;;;;;;;25.55;19.17;;;14.70;99.90;;;;;;1855151;75;21082;-73
2021/05/31 01:07:45;;;;;;;20.60;18.42;;;14.70;99.90;;;;;;1853487;77;21077;-74
2021/05/31 01:10:18;;;;;;;22.55;18.15;;;14.70;99.90;;;;;;1856286;77;21181;-73
2021/05/31 01:13:01;;;;;;;21.90;18.30;;;14.60;99.90;;;;;;1851386;75;22273;-73
2021/05/31 01:15:37;;;;;;;22.73;19.27;;;14.60;99.90;;;;;;1850535;76;21086;-72
2021/05/31 01:18:26;;;;;;;22.60;17.62;;;14.60;99.90;;;;;;1838159;76;21148;-73
2021/05/31 01:20:59;;;;;;;22.15;16.73;;;14.60;99.90;;;;;;1839313;76;21495;-74
2021/05/31 01:23:30;;;;;;;22.22;16.93;;;14.50;99.90;;;;;;1849918;75;21098;-73
2021/05/31 01:26:12;;;;;;;18.90;16.70;;;14.50;99.90;;;;;;1872806;75;21578;-74
2021/05/31 01:29:01;;;;;;;20.50;16.07;;;14.50;99.90;;;;;;1855639;75;21086;-74
2021/05/31 01:31:37;;;;;;;17.70;15.45;;;14.50;99.90;;;;;;1849460;75;21151;-74
2021/05/31 01:34:07;;;;;;;17.32;14.78;;;14.50;99.90;;;;;;1849168;76;21098;-74
2021/05/31 01:36:38;;;;;;;19.10;17.07;;;14.40;99.90;;;;;;1852273;75;21402;-73
2021/05/31 01:39:06;;;;;;;19.20;17.23;;;14.40;99.90;;;;;;1853131;75;21517;-73
2021/05/31 01:41:34;;;;;;;17.05;15.25;;;14.40;99.90;;;;;;1850418;76;21549;-73
2021/05/31 01:44:02;;;;;;;19.92;16.35;;;14.30;99.90;;;;;;1847824;76;21102;-73
2021/05/31 01:46:30;;;;;;;21.23;17.42;;;14.40;99.90;;;;;;1848389;76;21102;-72
2021/05/31 01:49:00;;;;;;;22.73;18.55;;;14.30;99.90;;;;;;1845872;77;21705;-73
2021/05/31 01:51:28;;;;;;;21.87;17.30;;;14.30;99.90;;;;;;1849869;76;21082;-73
2021/05/31 01:53:56;;;;;;;17.77;15.75;;;14.30;99.90;;;;;;1845079;77;21138;-73
2021/05/31 01:56:25;;;;;;;19.12;16.97;;;14.30;99.90;;;;;;1849887;76;21673;-73
2021/05/31 01:58:54;;;;;;;21.50;17.90;;;14.30;99.90;;;;;;1850908;76;21111;-73
2021/05/31 02:01:22;;;;;;;21.25;18.00;;;14.30;99.90;;;;;;1849705;76;21038;-73
2021/05/31 02:03:49;;;;;;;20.02;17.45;;;14.20;99.90;;;;;;1847606;76;21019;-73
2021/05/31 02:06:17;;;;;;;19.37;17.37;;;14.20;99.90;;;;;;1847551;76;21044;-73
2021/05/31 02:08:44;;;;;;;18.87;16.80;;;14.30;99.90;;;;;;1849260;76;22011;-73
2021/05/31 02:11:36;;;;;;;18.57;16.60;;;14.30;99.90;;;;;;1845787;77;21146;-73
2021/05/31 02:14:06;;;;;;;20.40;18.23;;;14.20;99.90;;;;;;1756193;80;21159;-72
2021/05/31 02:16:49;;;;;;;20.65;18.37;;;14.20;99.90;;;;;;1755154;81;22397;-73
2021/05/31 02:19:19;;;;;;;21.48;17.60;;;14.20;99.90;;;;;;1800059;76;22151;-73
2021/05/31 02:21:50;;;;;;;24.43;21.00;;;14.20;99.90;;;;;;1846789;77;21153;-73
2021/05/31 02:24:18;;;;;;;21.57;18.55;;;14.20;99.90;;;;;;1844612;76;21116;-73
2021/05/31 02:26:48;;;;;;;21.52;18.00;;;14.20;99.90;;;;;;1842961;76;21571;-73
2021/05/31 02:29:15;;;;;;;23.57;18.17;;;14.10;99.90;;;;;;1847899;77;21254;-73
2021/05/31 02:31:43;;;;;;;22.62;18.42;;;14.10;99.90;;;;;;1850322;76;21133;-73
2021/05/31 02:34:11;;;;;;;20.62;17.67;;;14.10;99.90;;;;;;1847856;77;21106;-73
2021/05/31 02:36:39;;;;;;;26.48;20.00;;;14.10;99.90;;;;;;1848486;76;21051;-73
2021/05/31 02:39:06;;;;;;;24.72;19.90;;;14.10;99.90;;;;;;1848345;77;21548;-72
2021/05/31 02:41:34;;;;;;;26.20;20.68;;;14.10;99.90;;;;;;1847578;76;21090;-73
2021/05/31 02:44:01;;;;;;;26.10;21.62;;;14.10;99.90;;;;;;1851698;77;21172;-73
2021/05/31 02:46:29;;;;;;;25.27;19.73;;;14.10;99.90;;;;;;1874116;75;22195;-72
2021/05/31 02:48:56;;;;;;;26.87;20.70;;;14.10;99.90;;;;;;1871557;75;21192;-71
2021/05/31 02:51:24;;;;;;;24.67;20.25;;;14.00;99.90;;;;;;1873734;75;21081;-72
2021/05/31 02:53:51;;;;;;;22.85;19.82;;;14.10;99.90;;;;;;1874776;75;21707;-72
2021/05/31 02:56:19;;;;;;;23.05;20.55;;;14.00;99.90;;;;;;1873528;75;21484;-73
2021/05/31 02:58:47;;;;;;;22.90;20.32;;;14.00;99.90;;;;;;1869305;76;21194;-73
2021/05/31 03:01:15;;;;;;;25.90;20.45;;;13.90;99.90;;;;;;1874477;75;21125;-72
2021/05/31 03:03:43;;;;;;;24.72;20.27;;;13.90;99.90;;;;;;1874522;75;21094;-73
2021/05/31 03:06:10;;;;;;;24.43;21.07;;;13.90;99.90;;;;;;1874585;75;21549;-72
2021/05/31 03:08:38;;;;;;;26.40;22.30;;;13.90;99.90;;;;;;1872659;76;21654;-73
2021/05/31 03:11:05;;;;;;;24.47;21.87;;;13.80;99.90;;;;;;1875050;75;21527;-72
2021/05/31 03:13:33;;;;;;;34.48;21.45;;;13.80;99.90;;;;;;1867983;75;21144;-72
2021/05/31 03:16:00;;;;;;;23.95;19.52;;;13.80;99.90;;;;;;1869768;75;21098;-72
2021/05/31 03:18:28;;;;;;;23.75;21.12;;;13.70;99.90;;;;;;1872596;76;21121;-72
2021/05/31 03:20:57;;;;;;;24.80;20.90;;;13.70;99.90;;;;;;1871722;75;21708;-72
2021/05/31 03:23:24;;;;;;;29.02;22.10;;;13.70;99.90;;;;;;1869909;75;21122;-73
2021/05/31 03:25:52;;;;;;;29.37;19.45;;;13.70;99.90;;;;;;1872032;75;21097;-73
2021/05/31 03:28:19;;;;;;;20.27;18.15;;;13.70;99.90;;;;;;1873508;75;21169;-73
2021/05/31 03:30:47;;;;;;;27.17;19.90;;;13.60;99.90;;;;;;1871285;75;21129;-72
2021/05/31 03:33:14;;;;;;;25.30;19.67;;;13.60;99.90;;;;;;1874654;76;21171;-73
2021/05/31 03:35:42;;;;;;;21.35;18.45;;;13.60;99.90;;;;;;1879115;75;21124;-73
2021/05/31 03:38:09;;;;;;;20.10;17.77;;;13.60;99.90;;;;;;1876479;75;21387;-73
2021/05/31 03:40:37;;;;;;;21.60;19.30;;;13.50;99.90;;;;;;1872110;76;21085;-73
2021/05/31 03:43:04;;;;;;;20.55;18.45;;;13.50;99.90;;;;;;1873792;75;21097;-73
2021/05/31 03:45:32;;;;;;;22.27;19.87;;;13.50;99.90;;;;;;1866358;75;21157;-73
2021/05/31 03:47:59;;;;;;;19.98;17.87;;;13.50;99.90;;;;;;1875851;75;21090;-72
2021/05/31 03:50:27;;;;;;;22.27;19.95;;;13.40;99.90;;;;;;1872820;76;21101;-73
2021/05/31 03:52:54;;;;;;;20.85;18.30;;;13.50;99.90;;;;;;1872876;75;21081;-73
2021/05/31 03:55:22;;;;;;;19.70;17.62;;;13.40;99.90;;;;;;1870589;75;21547;-72
2021/05/31 03:57:49;;;;;;;24.27;18.00;;;13.40;99.90;;;;;;1874342;75;21135;-72
2021/05/31 04:00:17;;;;;;;22.02;18.65;;;13.40;99.90;;;;;;1870951;76;21234;-72
2021/05/31 04:02:45;;;;;;;19.67;16.45;;;13.30;99.90;;;;;;1873457;76;21085;-72
2021/05/31 04:05:15;;;;;;;22.85;16.93;;;13.30;99.90;;;;;;1874083;75;21220;-72
2021/05/31 04:13:16;;;;;;;18.75;16.17;;;13.30;99.90;;;;;;1869710;76;21161;-73
2021/05/31 04:15:43;;;;;;;16.97;15.35;;;13.30;99.90;;;;;;1871700;75;21235;-72
2021/05/31 04:18:11;;;;;;;18.10;15.78;;;13.20;99.90;;;;;;1871718;75;21133;-73
2021/05/31 04:20:39;;;;;;;15.40;13.90;;;13.20;99.90;;;;;;1873638;76;21097;-73
2021/05/31 04:23:06;;;;;;;16.77;15.10;;;13.20;99.90;;;;;;1871978;76;21070;-73
2021/05/31 04:25:34;;;;;;;19.80;16.35;;;13.30;99.90;;;;;;1878540;75;21191;-73
2021/05/31 04:28:01;;;;;;;16.73;15.03;;;13.30;99.90;;;;;;1872317;75;21656;-74
2021/05/31 04:30:29;;;;;;;16.25;14.65;;;13.20;99.90;;;;;;1872156;76;21168;-74
2021/05/31 04:32:56;;;;;;;17.00;15.35;;;13.20;99.90;;;;;;1872670;75;21085;-74
2021/05/31 04:35:24;;;;;;;17.45;15.70;;;13.20;99.90;;;;;;1874715;75;21061;-73
2021/05/31 04:37:56;;;;;;;18.12;16.32;;;13.20;99.90;;;;;;1873603;76;22578;-74
2021/05/31 04:40:21;;;;;;;16.62;15.03;;;13.20;99.90;;;;;;1873043;75;21181;-74
2021/05/31 04:42:48;;;;;;;17.27;14.95;;;13.20;99.90;;;;;;1870537;75;21378;-73
2021/05/31 04:45:16;;;;;;;15.70;14.00;;;13.20;99.90;;;;;;1873808;75;21571;-73
2021/05/31 04:47:43;;;;;;;19.25;15.78;;;13.20;99.90;;;;;;1875248;75;21519;-73
2021/05/31 04:50:12;;;;;;;16.30;14.60;;;13.30;99.90;;;;;;1874028;75;21126;-73
2021/05/31 04:52:40;;;;;;;15.32;13.83;;;13.30;99.90;;;;;;1876634;75;21190;-74
2021/05/31 04:55:14;;;;;;;17.07;14.40;;;13.30;99.90;;;;;;1877829;75;21129;-74
2021/05/31 04:57:37;;;;;;;14.25;12.75;;;13.30;99.90;;;;;;1872630;76;21230;-74
2021/05/31 05:00:05;;;;;;;15.60;14.00;;;13.30;99.90;;;;;;1871637;74;21169;-73
2021/05/31 05:02:33;;;;;;;14.50;13.05;;;13.30;99.90;;;;;;1875692;75;21038;-74
2021/05/31 05:05:00;;;;;;;13.40;12.10;;;13.30;99.90;;;;;;1878624;75;21089;-72
2021/05/31 05:07:28;;;;;;;14.58;12.68;;;13.30;99.90;;;;;;1873015;75;21163;-72
2021/05/31 05:09:55;;;;;;;13.25;10.68;;;13.40;99.90;;;;;;1870929;74;21210;-72
2021/05/31 05:12:23;;;;;;;13.20;11.48;;;13.30;99.90;;;;;;1870782;75;21178;-73
2021/05/31 05:14:50;;;;;;;14.25;12.07;;;13.30;99.90;;;;;;1872715;74;21159;-76
2021/05/31 05:17:18;;;;;;;12.30;11.10;;;13.40;99.90;;;;;;1874531;75;21105;-74
2021/05/31 05:19:45;;;;;;;12.88;11.53;;;13.30;99.90;;;;;;1873472;75;21206;-72
2021/05/31 05:22:13;;;;;;;13.32;12.03;;;13.30;99.90;;;;;;1870009;75;21191;-73
2021/05/31 05:24:40;;;;;;;11.95;10.75;;;13.30;99.90;;;;;;1870072;75;21142;-72
2021/05/31 05:27:08;;;;;;;13.93;11.35;;;13.40;99.90;;;;;;1878080;75;21202;-72
2021/05/31 05:29:35;;;;;;;11.70;10.60;;;13.40;99.90;;;;;;1874368;75;21133;-74
2021/05/31 05:32:03;;;;;;;12.03;10.82;;;13.40;99.90;;;;;;1875056;75;21117;-73
2021/05/31 05:34:31;;;;;;;11.75;10.55;;;13.50;99.90;;;;;;1872229;76;21254;-74
2021/05/31 05:37:07;;;;;;;13.20;10.88;;;13.50;99.90;;;;;;1866775;76;21070;-75
2021/05/31 05:45:45;;;;;;;13.45;11.43;;;13.50;99.90;;;;;;1809158;76;21219;-74
2021/05/31 05:49:51;;;;;;;12.33;11.08;;;13.60;99.90;;;;;;1874204;74;21173;-73
2021/05/31 05:52:19;;;;;;;12.10;10.10;;;13.70;99.90;;;;;;1878743;75;21513;-73
2021/05/31 05:54:49;;;;;;;12.00;10.18;;;13.80;99.90;;;;;;1875026;75;21090;-73
2021/05/31 05:57:15;;;;;;;18.80;11.33;;;13.90;99.90;;;;;;1872679;75;22114;-73
2021/05/31 05:59:43;;;;;;;13.53;11.43;;;14.00;99.90;;;;;;1869373;76;21165;-73
2021/05/31 06:02:10;;;;;;;12.03;10.80;;;14.10;99.90;;;;;;1873322;74;21174;-73
2021/05/31 06:04:40;;;;;;;13.83;11.65;;;14.30;99.90;;;;;;1870917;76;21163;-73
2021/05/31 06:07:07;;;;;;;31.70;24.75;;;14.30;99.90;;;;;;1868148;76;21465;-73
2021/05/31 06:09:35;;;;;;;15.08;11.53;;;14.40;99.90;;;;;;1873102;75;21568;-71
2021/05/31 06:12:02;;;;;;;17.27;11.12;;;14.60;99.90;;;;;;1876840;75;21098;-72
2021/05/31 06:14:30;;;;;;;15.45;11.33;;;14.70;99.90;;;;;;1877440;75;21121;-73
2021/05/31 06:16:58;;;;;;;13.62;11.03;;;14.80;99.90;;;;;;1876287;75;21198;-72
2021/05/31 06:19:28;;;;;;;12.95;10.18;;;14.90;99.90;;;;;;1872985;76;21105;-76
2021/05/31 06:21:54;;;;;;;16.15;10.60;;;15.10;99.90;;;;;;1869601;76;21093;-73
2021/05/31 06:24:22;;;;;;;14.87;9.60;;;15.10;99.90;;;;;;1878265;75;21065;-73
2021/05/31 06:26:49;;;;;;;10.00;8.35;;;15.10;99.90;;;;;;1878820;75;21619;-72
2021/05/31 06:29:17;;;;;;;19.57;9.40;;;15.30;99.90;;;;;;1875125;76;21124;-71
2021/05/31 06:31:44;;;;;;;13.40;9.15;;;15.40;99.90;;;;;;1884837;74;21379;-71
2021/05/31 06:34:12;;;;;;;11.18;8.18;;;15.50;99.90;;;;;;1879654;74;21061;-72
2021/05/31 06:36:40;;;;;;;10.85;8.08;;;15.50;99.90;;;;;;1881502;74;21159;-72
2021/05/31 06:39:11;;;;;;;11.00;7.40;;;15.60;99.90;;;;;;1879421;75;21163;-72
2021/05/31 06:41:39;;;;;;;9.00;6.95;;;15.70;99.90;;;;;;1882382;74;21167;-73
2021/05/31 06:44:07;;;;;;;10.90;6.78;;;15.80;99.90;;;;;;1886797;74;21587;-73
2021/05/31 06:46:34;;;;;;;10.18;6.62;;;15.90;99.90;;;;;;1887211;74;21105;-76
2021/05/31 06:49:02;;;;;;;13.13;6.42;;;16.00;99.90;;;;;;1886517;74;21108;-75
2021/05/31 06:51:29;;;;;;;10.03;6.58;;;16.10;99.90;;;;;;1893431;74;21534;-75
2021/05/31 06:53:57;;;;;;;7.85;5.40;;;16.20;99.90;;;;;;1859338;75;21164;-74
2021/05/31 06:56:24;;;;;;;8.75;5.47;;;16.20;99.90;;;;;;1875001;75;22122;-74
2021/05/31 06:58:52;;;;;;;10.10;5.65;;;16.30;99.90;;;;;;1855116;75;21141;-74
2021/05/31 07:01:20;;;;;;;6.70;4.75;;;16.40;99.90;;;;;;1883147;75;21152;-74
2021/05/31 07:03:47;;;;;;;5.83;4.45;;;16.40;99.90;;;;;;1881077;74;21156;-74
2021/05/31 07:06:15;;;;;;;9.00;4.75;;;16.50;99.90;;;;;;1883977;75;21664;-75
2021/05/31 07:08:42;;;;;;;9.30;4.25;;;16.60;99.90;;;;;;1878239;76;21556;-74
2021/05/31 07:11:15;;;;;;;9.48;4.42;;;16.60;99.90;;;;;;1874467;75;21586;-73
2021/05/31 07:13:42;;;;;;;9.00;4.12;;;16.70;99.90;;;;;;1868794;74;21113;-75
2021/05/31 07:16:12;;;;;;;6.40;3.55;;;16.80;99.90;;;;;;1875087;74;21175;-75
2021/05/31 07:18:40;;;;;;;7.30;4.20;;;16.80;99.90;;;;;;1874548;75;21121;-73
2021/05/31 07:21:08;;;;;;;3.70;2.52;;;16.90;99.90;;;;;;1870827;74;21519;-71
2021/05/31 07:23:37;;;;;;;3.62;2.22;;;17.00;99.90;;;;;;1870773;75;21674;-72
2021/05/31 07:26:08;;;;;;;5.92;2.62;;;17.10;99.90;;;;;;1876901;75;21132;-72
2021/05/31 07:28:35;;;;;;;5.30;2.60;;;17.10;99.50;;;;;;1869156;75;21136;-72
2021/05/31 07:31:03;;;;;;;6.83;2.58;;;17.20;97.30;;;;;;1876829;75;21144;-73
2021/05/31 07:33:30;;;;;;;6.60;2.80;;;17.10;98.30;;;;;;1869726;75;21109;-74
2021/05/31 07:36:01;;;;;;;4.67;2.72;;;17.20;98.20;;;;;;1877925;75;21165;-72
2021/05/31 07:38:27;;;;;;;7.00;3.20;;;17.30;99.90;;;;;;1872098;76;21401;-73
2021/05/31 07:40:55;;;;;;;6.15;2.67;;;17.40;99.80;;;;;;1880682;74;21583;-75
2021/05/31 07:43:23;;;;;;;6.47;2.83;;;17.40;99.10;;;;;;1875285;74;21163;-74
2021/05/31 07:45:51;;;;;;;7.92;3.08;;;17.50;99.70;;;;;;1878427;75;21144;-74
2021/05/31 07:48:19;;;;;;;8.25;3.47;;;17.60;99.90;;;;;;1873653;75;21184;-74
2021/05/31 07:50:46;;;;;;;4.35;3.10;;;17.60;99.90;;;;;;1877845;75;21089;-74
2021/05/31 07:53:19;;;;;;;6.60;2.95;;;17.70;99.90;;;;;;1880304;75;21531;-74
2021/05/31 07:55:43;;;;;;;6.53;3.10;;;17.80;99.70;;;;;;1870935;75;21113;-75
2021/05/31 07:58:11;;;;;;;7.17;2.83;;;17.90;99.10;;;;;;1878719;74;21596;-74
2021/05/31 08:00:39;;;;;;;5.15;2.85;;;17.90;96.90;;;;;;1878515;75;21498;-75
2021/05/31 08:03:06;;;;;;;6.35;2.55;;;17.90;96.50;;;;;;1873640;75;21174;-74
2021/05/31 08:05:34;;;;;;;6.42;3.00;;;17.90;97.30;;;;;;1872773;75;21788;-75
2021/05/31 08:08:01;;;;;;;6.62;2.50;;;18.00;97.70;;;;;;1875812;74;21090;-76
2021/05/31 08:10:29;;;;;;;5.10;2.80;;;18.00;97.50;;;;;;1876997;75;21097;-76
2021/05/31 08:12:56;;;;;;;5.65;2.60;;;18.10;96.90;;;;;;1874416;75;21172;-74
2021/05/31 08:15:24;;;;;;;8.40;2.58;;;18.10;96.50;;;;;;1876477;75;21093;-74
2021/05/31 08:17:51;;;;;;;6.45;2.83;;;18.10;96.10;;;;;;1879021;75;21061;-74
2021/05/31 08:20:19;;;;;;;3.65;2.40;;;18.20;95.90;;;;;;1873570;75;21203;-72
2021/05/31 08:22:47;;;;;;;4.47;2.17;;;18.30;97.00;;;;;;1878289;75;21085;-72
2021/05/31 08:25:16;;;;;;;3.70;2.00;;;18.30;94.30;;;;;;1876206;74;21593;-73
2021/05/31 08:27:45;;;;;;;4.80;2.10;;;18.40;94.10;;;;;;1872811;75;21085;-73
2021/05/31 08:30:14;;;;;;;4.40;2.08;;;18.40;94.30;;;;;;1877909;75;22115;-74
2021/05/31 08:32:41;;;;;;;6.40;2.00;;;18.50;93.90;;;;;;1875280;75;21129;-73
2021/05/31 08:35:09;;;;;;;6.45;2.15;;;18.50;91.10;;;;;;1871078;75;21544;-73
2021/05/31 08:37:37;;;;;;;5.67;2.20;;;18.60;92.40;;;;;;1884938;75;21094;-71
2021/05/31 08:40:06;;;;;;;3.25;2.10;;;18.60;90.00;;;;;;1872584;75;21199;-71
2021/05/31 08:42:36;;;;;;;8.25;2.25;;;18.70;90.00;;;;;;1877523;75;21093;-71
2021/05/31 08:45:06;;;;;;;3.47;2.08;;;18.80;91.90;;;;;;1883834;74;22625;-72
2021/05/31 08:47:42;;;;;;;4.97;2.33;;;18.80;92.10;;;;;;1880446;75;22103;-72
2021/05/31 08:50:11;;;;;;;6.70;2.17;;;18.80;92.00;;;;;;1874158;75;21121;-71
2021/05/31 08:52:39;;;;;;;4.40;2.27;;;18.90;93.30;;;;;;1877898;75;21093;-73
2021/05/31 08:55:09;;;;;;;5.30;1.95;;;18.90;91.60;;;;;;1877121;75;21203;-73
2021/05/31 08:57:37;;;;;;;4.60;2.02;;;19.00;92.50;;;;;;1882884;75;21666;-73
2021/05/31 09:00:09;;;;;;;6.28;2.40;;;19.10;91.60;;;;;;1880040;74;21723;-74
2021/05/31 09:02:38;;;;;;;8.75;2.40;;;19.20;93.40;;;;;;1875203;75;21034;-73
2021/05/31 09:05:07;;;;;;;3.42;2.30;;;19.20;93.70;;;;;;1879507;75;21065;-73
2021/05/31 09:07:34;;;;;;;3.00;1.92;;;19.30;95.10;;;;;;1883370;75;21026;-73
2021/05/31 09:10:05;;;;;;;4.85;2.50;;;19.40;93.40;;;;;;1869985;75;21250;-73
2021/05/31 09:12:38;;;;;;;7.10;2.50;;;19.40;94.40;;;;;;1871692;75;21566;-74
2021/05/31 09:15:08;;;;;;;;;;;19.50;95.90;;;;;;1881403;75;21120;-74
2021/05/31 09:17:42;;;;;;;6.95;2.20;;;19.60;92.10;;;;;;1874340;76;20857;-73
2021/05/31 09:20:09;;;;;;;8.20;3.00;;;19.60;92.40;;;;;;1876642;75;21133;-73
2021/05/31 09:22:50;;;;;;;8.23;2.50;;;19.70;91.20;;;;;;1872982;76;21129;-74
2021/05/31 09:25:29;;;;;;;5.58;2.95;;;19.70;94.00;;;;;;1872514;75;21158;-73
2021/05/31 09:27:57;;;;;;;7.60;3.17;;;19.90;91.80;;;;;;1878016;75;21166;-73
2021/05/31 09:30:37;;;;;;;6.92;3.58;;;19.90;92.40;;;;;;1873758;74;21738;-73
2021/05/31 09:33:10;;;;;;;6.85;3.20;;;19.90;94.20;;;;;;1877563;75;21135;-74
2021/05/31 09:35:43;;;;;;;8.00;3.62;;;20.00;95.90;;;;;;1869185;76;21486;-73
2021/05/31 09:38:10;;;;;;;;;;;20.10;94.60;;;;;;1878029;75;21116;-75
2021/05/31 09:40:38;;;;;;;6.25;3.37;;;20.10;95.60;;;;;;1856769;77;20183;-74
2021/05/31 09:43:07;;;;;;;6.22;3.40;;;20.20;92.40;;;;;;1881808;76;21085;-76
2021/05/31 09:45:36;;;;;;;5.78;2.85;;;20.20;94.00;;;;;;1853559;76;21478;-74
2021/05/31 09:48:05;;;;;;;8.05;3.25;;;20.30;94.60;;;;;;1874776;75;21692;-74
2021/05/31 09:50:33;;;;;;;7.95;3.65;;;20.30;94.90;;;;;;1853061;75;21093;-74
2021/05/31 09:53:09;;;;;;;10.20;3.10;;;20.40;95.30;;;;;;1873974;75;21057;-75
2021/05/31 09:55:44;;;;;;;9.95;3.42;;;20.50;93.90;;;;;;1860024;75;21023;-74
2021/05/31 09:58:17;;;;;;;7.87;3.10;;;20.60;94.70;;;;;;1875086;75;21667;-74
2021/05/31 10:00:54;;;;;;;7.47;3.20;;;20.60;94.40;;;;;;1853085;77;21137;-74
2021/05/31 10:03:29;;;;;;;7.45;3.30;;;20.60;95.20;;;;;;1872025;75;21061;-72
2021/05/31 10:06:00;;;;;;;6.42;3.40;;;20.60;95.20;;;;;;1852158;75;21186;-74
2021/05/31 10:11:06;;;;;;;5.92;3.40;;;20.90;95.40;;;;;;1882235;75;21082;-74
2021/05/31 10:13:36;;;;;;;4.47;2.70;;;20.90;94.10;;;;;;1872424;75;21220;-73
2021/05/31 10:16:05;;;;;;;7.90;3.25;;;21.00;95.20;;;;;;1874512;75;21524;-73
2021/05/31 10:18:33;;;;;;;6.17;2.90;;;21.00;94.50;;;;;;1878461;75;21141;-74
2021/05/31 10:21:01;;;;;;;7.85;3.35;;;21.10;92.30;;;;;;1875932;75;21226;-74
2021/05/31 10:23:28;;;;;;;7.55;2.55;;;21.10;90.90;;;;;;1875615;75;21591;-74
2021/05/31 10:26:00;;;;;;;7.30;3.67;;;21.10;94.90;;;;;;1876081;76;21058;-73
2021/05/31 10:28:39;;;;;;;3.95;2.40;;;21.20;95.60;;;;;;1872201;75;21565;-74
2021/05/31 10:31:09;;;;;;;6.35;2.75;;;21.20;95.70;;;;;;1875831;75;21038;-74
2021/05/31 10:33:40;;;;;;;5.50;3.05;;;21.30;92.40;;;;;;1874309;76;21096;-74
2021/05/31 10:36:16;;;;;;;7.33;2.55;;;21.30;94.10;;;;;;1872694;75;21534;-73
2021/05/31 10:38:47;;;;;;;6.30;2.60;;;21.40;92.20;;;;;;1875964;75;21159;-75
2021/05/31 10:41:17;;;;;;;4.47;2.72;;;21.40;92.40;;;;;;1855600;75;21195;-73
2021/05/31 10:43:51;;;;;;;11.70;2.65;;;21.50;92.50;;;;;;1870590;75;21114;-74
2021/05/31 10:46:22;;;;;;;8.70;2.62;;;21.50;91.80;;;;;;1873395;75;21500;-71
2021/05/31 10:48:51;;;;;;;3.58;2.02;;;21.60;89.70;;;;;;1855741;77;21548;-73
2021/05/31 10:51:29;;;;;;;4.80;2.17;;;21.60;90.60;;;;;;1875927;75;21155;-73
2021/05/31 10:53:58;;;;;;;4.90;2.30;;;21.70;91.50;;;;;;1853701;75;21177;-73
2021/05/31 10:56:29;;;;;;;4.70;2.40;;;21.70;92.00;;;;;;1879348;75;21066;-72
2021/05/31 10:58:59;;;;;;;5.65;2.58;;;21.80;90.40;;;;;;1872389;75;21268;-71
2021/05/31 11:01:37;;;;;;;3.27;2.35;;;21.80;90.70;;;;;;1875513;75;21644;-71
2021/05/31 11:04:10;;;;;;;4.65;2.20;;;21.80;91.00;;;;;;1873498;75;21203;-74
2021/05/31 11:06:37;;;;;;;;;;;21.80;93.50;;;;;;1879975;75;21174;-72
2021/05/31 11:09:07;;;;;;;4.17;2.62;;;21.90;93.20;;;;;;1874264;75;20172;-72
2021/05/31 11:11:50;;;;;;;10.25;2.83;;;21.90;89.80;;;;;;1874905;76;21530;-72
2021/05/31 11:14:34;;;;;;;7.12;2.65;;;22.00;89.80;;;;;;1850869;77;21160;-72
2021/05/31 11:17:05;;;;;;;6.70;2.67;;;22.10;92.30;;;;;;1877383;75;22178;-71
2021/05/31 11:19:38;;;;;;;5.72;2.35;;;22.10;88.70;;;;;;1854018;75;21129;-74
2021/05/31 11:22:25;;;;;;;4.40;2.20;;;22.00;88.40;;;;;;1872603;76;21079;-71
2021/05/31 11:24:58;;;;;;;5.78;2.60;;;22.10;87.10;;;;;;1855257;76;21106;-73
2021/05/31 11:27:33;;;;;;;6.95;2.58;;;22.10;91.40;;;;;;1877837;75;21132;-72
2021/05/31 11:30:02;;;;;;;4.47;2.47;;;22.10;90.70;;;;;;1852416;75;21184;-71
2021/05/31 11:32:29;;;;;;;5.35;2.30;;;22.10;92.80;;;;;;1869136;76;21097;-72
2021/05/31 11:34:59;;;;;;;4.22;2.42;;;22.20;91.90;;;;;;1854508;77;21122;-72
2021/05/31 11:37:29;;;;;;;6.08;2.47;;;22.30;90.50;;;;;;1883478;75;21069;-73
2021/05/31 11:39:58;;;;;;;8.35;2.40;;;22.40;91.10;;;;;;1853166;76;21633;-73
2021/05/31 11:42:25;;;;;;;4.08;2.00;;;22.40;85.80;;;;;;1877621;75;21086;-72
2021/05/31 11:45:02;;;;;;;5.03;2.37;;;22.50;85.20;;;;;;1853957;75;21579;-71
2021/05/31 11:47:33;;;;;;;4.40;2.17;;;22.50;90.40;;;;;;1872639;76;21174;-72
2021/05/31 11:50:00;;;;;;;3.62;2.00;;;22.60;88.80;;;;;;1852234;75;21714;-72
2021/05/31 11:52:29;;;;;;;5.62;2.17;;;22.60;88.20;;;;;;1878129;75;21073;-72
2021/05/31 11:54:56;;;;;;;7.37;2.77;;;22.60;88.20;;;;;;1858161;75;21101;-71
2021/05/31 11:57:25;;;;;;;3.70;2.20;;;22.70;86.50;;;;;;1879342;75;21066;-72
2021/05/31 11:59:56;;;;;;;7.42;2.60;;;22.60;84.20;;;;;;1885912;75;21551;-71
2021/05/31 12:02:27;;;;;;;6.75;2.42;;;22.60;90.60;;;;;;1836233;76;21129;-72
2021/05/31 12:04:55;;;;;;;3.02;1.95;;;22.70;82.00;;;;;;1833207;76;21014;-71
2021/05/31 12:07:24;;;;;;;6.87;2.40;;;22.70;83.20;;;;;;1878771;75;21033;-73
2021/05/31 12:09:54;;;;;;;5.05;2.67;;;22.70;82.20;;;;;;1871954;76;21099;-73
2021/05/31 12:12:25;;;;;;;5.25;2.62;;;22.70;84.90;;;;;;1873541;75;21036;-73
2021/05/31 12:14:57;;;;;;;5.10;2.42;;;22.70;84.50;;;;;;1868906;76;21091;-74
2021/05/31 12:17:29;;;;;;;4.12;2.35;;;22.70;85.50;;;;;;1882509;75;21025;-73
2021/05/31 12:19:57;;;;;;;6.53;2.67;;;22.80;83.90;;;;;;1876942;75;21166;-73
2021/05/31 12:22:28;;;;;;;6.00;2.40;;;22.90;84.40;;;;;;1869223;75;21026;-73
2021/05/31 12:24:59;;;;;;;6.63;2.40;;;23.00;84.60;;;;;;1874603;76;21049;-72
2021/05/31 12:27:29;;;;;;;8.28;2.55;;;23.00;82.00;;;;;;1837844;76;21097;-72
2021/05/31 12:29:57;;;;;;;5.40;2.70;;;23.10;84.10;;;;;;1863321;76;21144;-73
2021/05/31 12:32:27;;;;;;;4.62;2.20;;;23.10;85.80;;;;;;1873997;75;21583;-72
2021/05/31 12:34:56;;;;;;;6.12;2.70;;;23.10;82.70;;;;;;1868969;76;21496;-72
2021/05/31 12:37:27;;;;;;;8.13;2.35;;;23.10;83.30;;;;;;1877246;75;21190;-72
2021/05/31 12:39:56;;;;;;;9.18;2.50;;;23.20;78.80;;;;;;1871269;76;21116;-73
2021/05/31 12:42:29;;;;;;;5.85;2.62;;;23.20;76.60;;;;;;1870902;76;21085;-72
2021/05/31 12:45:11;;;;;;;6.22;2.35;;;23.30;79.50;;;;;;1876765;75;21321;-74
2021/05/31 12:47:42;;;;;;;5.85;2.80;;;23.30;85.10;;;;;;1872874;76;21080;-74
2021/05/31 12:50:12;;;;;;;5.45;2.25;;;23.30;78.70;;;;;;1850736;77;21234;-75
2021/05/31 12:52:46;;;;;;;5.85;2.33;;;23.30;82.20;;;;;;1876090;75;21074;-74
2021/05/31 12:55:16;;;;;;;4.90;2.50;;;23.30;83.30;;;;;;1872914;75;21144;-73
2021/05/31 12:57:47;;;;;;;8.95;2.12;;;23.40;81.50;;;;;;1875502;74;21606;-74
2021/05/31 13:00:20;;;;;;;4.67;2.50;;;23.50;83.60;;;;;;1874514;75;21113;-73
2021/05/31 13:03:01;;;;;;;4.25;1.95;;;23.50;81.80;;;;;;1871233;75;21038;-73
2021/05/31 13:05:29;;;;;;;7.00;2.42;;;23.60;80.50;;;;;;1878629;75;21072;-74